sensor_id;sensor_type;location;lat;lon;timestamp;pressure;altitude;pressure_sealevel;temperature;humidity
56992;BME280;42885;49.754;18.636;2023-09-30T00:02:03;98649.38;;;18.53;90.52
56992;BME280;42885;49.754;18.636;2023-09-30T00:04:34;98644.75;;;18.70;89.30
56992;BME280;42885;49.754;18.636;2023-09-30T00:07:06;98649.43;;;18.47;90.90
56992;BME280;42885;49.754;18.636;2023-09-30T00:09:38;98648.41;;;18.38;93.28
56992;BME280;42885;49.754;18.636;2023-09-30T00:12:09;98640.09;;;18.43;92.84
56992;BME280;42885;49.754;18.636;2023-09-30T00:14:41;98648.86;;;18.43;91.91
56992;BME280;42885;49.754;18.636;2023-09-30T00:17:12;98641.91;;;18.78;87.74
56992;BME280;42885;49.754;18.636;2023-09-30T00:19:43;98644.39;;;18.60;89.64
56992;BME280;42885;49.754;18.636;2023-09-30T00:22:15;98650.07;;;18.55;89.71
56992;BME280;42885;49.754;18.636;2023-09-30T00:24:45;98644.20;;;18.77;86.34
56992;BME280;42885;49.754;18.636;2023-09-30T00:27:16;98640.73;;;18.86;85.23
56992;BME280;42885;49.754;18.636;2023-09-30T00:29:47;98639.39;;;19.02;83.88
56992;BME280;42885;49.754;18.636;2023-09-30T00:32:18;98638.50;;;18.81;84.60
56992;BME280;42885;49.754;18.636;2023-09-30T00:34:49;98641.02;;;18.83;84.42
56992;BME280;42885;49.754;18.636;2023-09-30T00:37:22;98631.93;;;19.11;81.85
56992;BME280;42885;49.754;18.636;2023-09-30T00:39:53;98635.36;;;18.92;85.00
56992;BME280;42885;49.754;18.636;2023-09-30T00:42:25;98625.87;;;18.79;84.61
56992;BME280;42885;49.754;18.636;2023-09-30T00:44:56;98626.50;;;18.87;84.98
56992;BME280;42885;49.754;18.636;2023-09-30T00:47:28;98623.89;;;18.71;87.49
56992;BME280;42885;49.754;18.636;2023-09-30T00:49:59;98623.34;;;18.78;87.91
56992;BME280;42885;49.754;18.636;2023-09-30T00:52:32;98625.23;;;18.81;87.25
56992;BME280;42885;49.754;18.636;2023-09-30T00:55:05;98624.53;;;19.15;82.29
56992;BME280;42885;49.754;18.636;2023-09-30T00:57:39;98624.66;;;19.13;81.64
56992;BME280;42885;49.754;18.636;2023-09-30T01:00:11;98616.30;;;19.28;79.74
56992;BME280;42885;49.754;18.636;2023-09-30T01:02:42;98621.61;;;19.08;82.22
56992;BME280;42885;49.754;18.636;2023-09-30T01:05:15;98618.11;;;19.07;81.88
56992;BME280;42885;49.754;18.636;2023-09-30T01:07:46;98620.00;;;19.11;81.96
56992;BME280;42885;49.754;18.636;2023-09-30T01:10:17;98619.17;;;19.10;83.29
56992;BME280;42885;49.754;18.636;2023-09-30T01:12:48;98627.53;;;19.16;83.21
56992;BME280;42885;49.754;18.636;2023-09-30T01:15:19;98622.06;;;18.97;84.66
56992;BME280;42885;49.754;18.636;2023-09-30T01:17:50;98618.45;;;19.08;84.40
56992;BME280;42885;49.754;18.636;2023-09-30T01:20:21;98620.92;;;19.06;84.93
56992;BME280;42885;49.754;18.636;2023-09-30T01:22:54;98616.72;;;19.03;85.39
56992;BME280;42885;49.754;18.636;2023-09-30T01:25:28;98614.73;;;19.54;79.24
56992;BME280;42885;49.754;18.636;2023-09-30T01:27:59;98614.20;;;19.41;79.81
56992;BME280;42885;49.754;18.636;2023-09-30T01:30:32;98615.73;;;19.34;79.72
56992;BME280;42885;49.754;18.636;2023-09-30T01:33:03;98618.70;;;19.54;79.72
56992;BME280;42885;49.754;18.636;2023-09-30T01:35:37;98619.64;;;19.49;78.99
56992;BME280;42885;49.754;18.636;2023-09-30T01:38:08;98625.16;;;19.42;81.68
56992;BME280;42885;49.754;18.636;2023-09-30T01:40:40;98624.39;;;19.56;78.12
56992;BME280;42885;49.754;18.636;2023-09-30T01:43:17;98629.78;;;19.40;78.95
56992;BME280;42885;49.754;18.636;2023-09-30T01:45:45;98632.83;;;19.55;78.63
56992;BME280;42885;49.754;18.636;2023-09-30T01:48:16;98630.38;;;19.67;77.08
56992;BME280;42885;49.754;18.636;2023-09-30T01:50:47;98630.86;;;19.67;77.28
56992;BME280;42885;49.754;18.636;2023-09-30T01:53:18;98632.39;;;19.70;76.55
56992;BME280;42885;49.754;18.636;2023-09-30T01:55:49;98632.77;;;19.85;75.71
56992;BME280;42885;49.754;18.636;2023-09-30T01:58:20;98633.34;;;19.78;75.04
56992;BME280;42885;49.754;18.636;2023-09-30T02:00:52;98631.55;;;19.69;76.72
56992;BME280;42885;49.754;18.636;2023-09-30T02:03:23;98632.52;;;19.78;75.94
56992;BME280;42885;49.754;18.636;2023-09-30T02:05:53;98625.11;;;19.81;75.19
56992;BME280;42885;49.754;18.636;2023-09-30T02:08:25;98629.40;;;19.69;76.98
56992;BME280;42885;49.754;18.636;2023-09-30T02:10:56;98632.00;;;19.88;74.85
56992;BME280;42885;49.754;18.636;2023-09-30T02:13:27;98621.34;;;19.74;77.67
56992;BME280;42885;49.754;18.636;2023-09-30T02:15:59;98624.98;;;19.73;78.21
56992;BME280;42885;49.754;18.636;2023-09-30T02:18:30;98626.41;;;19.58;80.56
56992;BME280;42885;49.754;18.636;2023-09-30T02:21:02;98628.41;;;19.70;79.22
56992;BME280;42885;49.754;18.636;2023-09-30T02:23:33;98629.48;;;20.62;75.44
56992;BME280;42885;49.754;18.636;2023-09-30T02:26:05;98628.58;;;19.82;77.36
56992;BME280;42885;49.754;18.636;2023-09-30T02:28:36;98624.61;;;19.48;82.85
56992;BME280;42885;49.754;18.636;2023-09-30T02:31:08;98625.00;;;19.53;83.13
56992;BME280;42885;49.754;18.636;2023-09-30T02:33:41;98624.33;;;19.85;78.72
56992;BME280;42885;49.754;18.636;2023-09-30T02:36:13;98633.17;;;19.66;79.14
56992;BME280;42885;49.754;18.636;2023-09-30T02:38:45;98629.96;;;19.52;79.31
56992;BME280;42885;49.754;18.636;2023-09-30T02:41:17;98625.08;;;19.58;79.37
56992;BME280;42885;49.754;18.636;2023-09-30T02:43:48;98624.78;;;19.71;78.69
56992;BME280;42885;49.754;18.636;2023-09-30T02:46:19;98620.92;;;19.69;77.54
56992;BME280;42885;49.754;18.636;2023-09-30T02:48:50;98627.46;;;19.85;77.93
56992;BME280;42885;49.754;18.636;2023-09-30T02:51:21;98629.13;;;19.86;75.96
56992;BME280;42885;49.754;18.636;2023-09-30T02:53:52;98629.82;;;19.88;77.78
56992;BME280;42885;49.754;18.636;2023-09-30T02:56:23;98623.70;;;19.77;78.48
56992;BME280;42885;49.754;18.636;2023-09-30T02:58:57;98621.22;;;20.00;76.26
56992;BME280;42885;49.754;18.636;2023-09-30T03:01:31;98620.75;;;20.00;76.16
56992;BME280;42885;49.754;18.636;2023-09-30T03:04:05;98618.56;;;20.00;75.42
56992;BME280;42885;49.754;18.636;2023-09-30T03:06:39;98616.86;;;19.94;75.00
56992;BME280;42885;49.754;18.636;2023-09-30T03:09:10;98612.81;;;19.80;76.92
56992;BME280;42885;49.754;18.636;2023-09-30T03:11:42;98618.03;;;19.86;76.28
56992;BME280;42885;49.754;18.636;2023-09-30T03:14:15;98620.17;;;20.06;74.95
56992;BME280;42885;49.754;18.636;2023-09-30T03:16:46;98619.97;;;20.04;75.52
56992;BME280;42885;49.754;18.636;2023-09-30T03:19:18;98615.84;;;20.05;73.62
56992;BME280;42885;49.754;18.636;2023-09-30T03:21:49;98612.47;;;20.03;74.49
56992;BME280;42885;49.754;18.636;2023-09-30T03:24:20;98618.41;;;20.11;75.37
56992;BME280;42885;49.754;18.636;2023-09-30T03:26:51;98613.80;;;20.03;73.50
56992;BME280;42885;49.754;18.636;2023-09-30T03:29:22;98612.98;;;20.03;74.40
56992;BME280;42885;49.754;18.636;2023-09-30T03:31:53;98606.76;;;20.22;72.14
56992;BME280;42885;49.754;18.636;2023-09-30T03:34:25;98600.63;;;20.12;72.72
56992;BME280;42885;49.754;18.636;2023-09-30T03:36:56;98605.80;;;20.13;74.20
56992;BME280;42885;49.754;18.636;2023-09-30T03:39:29;98609.69;;;20.19;73.54
56992;BME280;42885;49.754;18.636;2023-09-30T03:42:02;98604.27;;;20.11;75.27
56992;BME280;42885;49.754;18.636;2023-09-30T03:44:33;98602.56;;;20.05;76.68
56992;BME280;42885;49.754;18.636;2023-09-30T03:47:04;98601.23;;;20.05;75.95
56992;BME280;42885;49.754;18.636;2023-09-30T03:49:35;98594.53;;;20.29;72.46
56992;BME280;42885;49.754;18.636;2023-09-30T03:52:07;98604.28;;;20.25;74.01
56992;BME280;42885;49.754;18.636;2023-09-30T03:54:40;98604.45;;;20.23;73.20
56992;BME280;42885;49.754;18.636;2023-09-30T03:57:11;98597.57;;;20.90;71.40
56992;BME280;42885;49.754;18.636;2023-09-30T03:59:42;98605.36;;;20.04;77.57
56992;BME280;42885;49.754;18.636;2023-09-30T04:02:15;98605.44;;;19.88;81.02
56992;BME280;42885;49.754;18.636;2023-09-30T04:04:45;98602.92;;;19.87;79.61
56992;BME280;42885;49.754;18.636;2023-09-30T04:07:16;98608.73;;;19.86;83.83
56992;BME280;42885;49.754;18.636;2023-09-30T04:09:48;98611.66;;;19.83;83.53
56992;BME280;42885;49.754;18.636;2023-09-30T04:12:19;98612.20;;;19.63;82.76
56992;BME280;42885;49.754;18.636;2023-09-30T04:14:51;98610.65;;;19.70;86.74
56992;BME280;42885;49.754;18.636;2023-09-30T04:17:22;98615.69;;;19.73;90.75
56992;BME280;42885;49.754;18.636;2023-09-30T04:19:54;98617.91;;;19.78;89.07
56992;BME280;42885;49.754;18.636;2023-09-30T04:22:26;98622.59;;;19.70;86.80
56992;BME280;42885;49.754;18.636;2023-09-30T04:24:58;98618.17;;;19.85;84.87
56992;BME280;42885;49.754;18.636;2023-09-30T04:27:29;98624.81;;;19.85;86.47
56992;BME280;42885;49.754;18.636;2023-09-30T04:30:05;98633.34;;;19.98;82.41
56992;BME280;42885;49.754;18.636;2023-09-30T04:32:41;98632.61;;;20.06;81.41
56992;BME280;42885;49.754;18.636;2023-09-30T04:35:12;98642.41;;;20.05;81.32
56992;BME280;42885;49.754;18.636;2023-09-30T04:37:43;98642.80;;;20.11;80.59
56992;BME280;42885;49.754;18.636;2023-09-30T04:40:14;98647.19;;;20.16;79.45
56992;BME280;42885;49.754;18.636;2023-09-30T04:42:49;98653.59;;;20.09;80.38
56992;BME280;42885;49.754;18.636;2023-09-30T04:45:20;98647.66;;;20.01;83.03
56992;BME280;42885;49.754;18.636;2023-09-30T04:47:54;98651.36;;;19.85;86.14
56992;BME280;42885;49.754;18.636;2023-09-30T04:50:27;98653.65;;;20.03;88.98
56992;BME280;42885;49.754;18.636;2023-09-30T04:53:00;98655.98;;;19.92;84.49
56992;BME280;42885;49.754;18.636;2023-09-30T04:55:31;98655.82;;;20.70;81.47
56992;BME280;42885;49.754;18.636;2023-09-30T04:58:02;98660.59;;;20.00;85.49
56992;BME280;42885;49.754;18.636;2023-09-30T05:00:35;98666.55;;;19.98;84.74
56992;BME280;42885;49.754;18.636;2023-09-30T05:03:06;98671.26;;;20.04;86.75
56992;BME280;42885;49.754;18.636;2023-09-30T05:05:38;98663.81;;;19.94;87.22
56992;BME280;42885;49.754;18.636;2023-09-30T05:08:08;98664.51;;;19.86;89.91
56992;BME280;42885;49.754;18.636;2023-09-30T05:10:42;98670.09;;;20.03;88.83
56992;BME280;42885;49.754;18.636;2023-09-30T05:13:13;98674.79;;;19.85;94.44
56992;BME280;42885;49.754;18.636;2023-09-30T05:15:44;98671.53;;;19.67;96.35
56992;BME280;42885;49.754;18.636;2023-09-30T05:18:16;98675.44;;;19.63;99.73
56992;BME280;42885;49.754;18.636;2023-09-30T05:20:47;98676.30;;;19.34;100.00
56992;BME280;42885;49.754;18.636;2023-09-30T05:23:19;98677.19;;;19.29;100.00
56992;BME280;42885;49.754;18.636;2023-09-30T05:25:50;98675.09;;;19.33;100.00
56992;BME280;42885;49.754;18.636;2023-09-30T05:28:22;98679.84;;;19.29;100.00
56992;BME280;42885;49.754;18.636;2023-09-30T05:30:53;98683.81;;;19.49;100.00
56992;BME280;42885;49.754;18.636;2023-09-30T05:33:24;98690.05;;;19.44;100.00
56992;BME280;42885;49.754;18.636;2023-09-30T05:35:55;98687.67;;;19.60;100.00
56992;BME280;42885;49.754;18.636;2023-09-30T05:38:26;98687.80;;;19.59;100.00
56992;BME280;42885;49.754;18.636;2023-09-30T05:40:57;98692.34;;;19.62;99.01
56992;BME280;42885;49.754;18.636;2023-09-30T05:43:30;98691.66;;;19.60;98.38
56992;BME280;42885;49.754;18.636;2023-09-30T05:46:01;98693.67;;;19.62;96.62
56992;BME280;42885;49.754;18.636;2023-09-30T05:48:32;98697.50;;;19.74;94.92
56992;BME280;42885;49.754;18.636;2023-09-30T05:51:03;98701.95;;;19.93;94.77
56992;BME280;42885;49.754;18.636;2023-09-30T05:53:34;98706.78;;;20.03;98.25
56992;BME280;42885;49.754;18.636;2023-09-30T05:56:06;98704.63;;;20.03;96.13
56992;BME280;42885;49.754;18.636;2023-09-30T05:58:41;98706.23;;;19.90;92.05
56992;BME280;42885;49.754;18.636;2023-09-30T06:01:12;98702.80;;;19.93;93.26
56992;BME280;42885;49.754;18.636;2023-09-30T06:03:46;98709.29;;;20.15;91.67
56992;BME280;42885;49.754;18.636;2023-09-30T06:06:17;98713.96;;;20.17;94.24
56992;BME280;42885;49.754;18.636;2023-09-30T06:08:49;98711.70;;;19.98;97.36
56992;BME280;42885;49.754;18.636;2023-09-30T06:11:20;98713.56;;;19.92;98.02
56992;BME280;42885;49.754;18.636;2023-09-30T06:13:55;98715.02;;;19.90;95.60
56992;BME280;42885;49.754;18.636;2023-09-30T06:16:29;98718.61;;;19.95;99.01
56992;BME280;42885;49.754;18.636;2023-09-30T06:19:01;98726.76;;;19.88;95.83
56992;BME280;42885;49.754;18.636;2023-09-30T06:21:33;98731.80;;;19.81;95.84
56992;BME280;42885;49.754;18.636;2023-09-30T06:24:05;98734.03;;;19.86;95.70
56992;BME280;42885;49.754;18.636;2023-09-30T06:26:37;98739.22;;;19.87;94.07
56992;BME280;42885;49.754;18.636;2023-09-30T06:29:08;98743.33;;;19.86;95.91
56992;BME280;42885;49.754;18.636;2023-09-30T06:31:39;98751.94;;;19.93;95.63
56992;BME280;42885;49.754;18.636;2023-09-30T06:34:10;98752.45;;;20.03;94.66
56992;BME280;42885;49.754;18.636;2023-09-30T06:36:41;98758.02;;;19.90;97.46
56992;BME280;42885;49.754;18.636;2023-09-30T06:39:12;98763.84;;;20.09;96.89
56992;BME280;42885;49.754;18.636;2023-09-30T06:41:42;98763.46;;;20.18;98.54
56992;BME280;42885;49.754;18.636;2023-09-30T06:44:14;98770.92;;;20.28;98.89
56992;BME280;42885;49.754;18.636;2023-09-30T06:46:45;98769.32;;;20.31;99.09
56992;BME280;42885;49.754;18.636;2023-09-30T06:49:17;98772.84;;;20.12;97.64
56992;BME280;42885;49.754;18.636;2023-09-30T06:51:48;98779.13;;;20.45;99.83
56992;BME280;42885;49.754;18.636;2023-09-30T06:54:20;98776.47;;;20.69;98.38
56992;BME280;42885;49.754;18.636;2023-09-30T06:56:52;98776.92;;;20.78;97.21
56992;BME280;42885;49.754;18.636;2023-09-30T06:59:24;98784.36;;;20.84;93.75
56992;BME280;42885;49.754;18.636;2023-09-30T07:01:56;98783.01;;;20.60;97.70
56992;BME280;42885;49.754;18.636;2023-09-30T07:04:27;98790.66;;;20.49;100.00
56992;BME280;42885;49.754;18.636;2023-09-30T07:06:59;98803.96;;;20.73;99.17
56992;BME280;42885;49.754;18.636;2023-09-30T07:09:30;98796.83;;;20.50;100.00
56992;BME280;42885;49.754;18.636;2023-09-30T07:12:03;98797.88;;;20.19;100.00
56992;BME280;42885;49.754;18.636;2023-09-30T07:14:36;98800.74;;;20.12;100.00
56992;BME280;42885;49.754;18.636;2023-09-30T07:17:09;98806.06;;;20.22;100.00
56992;BME280;42885;49.754;18.636;2023-09-30T07:19:41;98800.36;;;20.21;100.00
56992;BME280;42885;49.754;18.636;2023-09-30T07:22:15;98800.36;;;20.21;100.00
56992;BME280;42885;49.754;18.636;2023-09-30T07:24:46;98813.09;;;20.37;100.00
56992;BME280;42885;49.754;18.636;2023-09-30T07:27:21;98818.02;;;20.46;100.00
56992;BME280;42885;49.754;18.636;2023-09-30T07:29:51;98822.13;;;20.54;100.00
56992;BME280;42885;49.754;18.636;2023-09-30T07:32:22;98825.13;;;20.31;100.00
56992;BME280;42885;49.754;18.636;2023-09-30T07:34:54;98833.61;;;20.65;100.00
56992;BME280;42885;49.754;18.636;2023-09-30T07:37:33;98830.27;;;20.53;100.00
56992;BME280;42885;49.754;18.636;2023-09-30T07:40:05;98837.52;;;20.60;100.00
56992;BME280;42885;49.754;18.636;2023-09-30T07:42:36;98834.59;;;20.63;100.00
56992;BME280;42885;49.754;18.636;2023-09-30T07:45:08;98834.34;;;20.71;100.00
56992;BME280;42885;49.754;18.636;2023-09-30T07:47:40;98833.96;;;20.56;100.00
56992;BME280;42885;49.754;18.636;2023-09-30T07:50:12;98830.23;;;20.96;100.00
56992;BME280;42885;49.754;18.636;2023-09-30T07:52:43;98846.08;;;20.78;100.00
56992;BME280;42885;49.754;18.636;2023-09-30T07:55:15;98845.94;;;21.27;100.00
56992;BME280;42885;49.754;18.636;2023-09-30T07:57:47;98843.54;;;21.80;99.98
56992;BME280;42885;49.754;18.636;2023-09-30T08:00:18;98856.86;;;21.10;100.00
56992;BME280;42885;49.754;18.636;2023-09-30T08:02:50;98849.82;;;21.05;100.00
56992;BME280;42885;49.754;18.636;2023-09-30T08:07:52;98850.98;;;21.21;100.00
56992;BME280;42885;49.754;18.636;2023-09-30T08:10:24;98860.59;;;20.89;100.00
56992;BME280;42885;49.754;18.636;2023-09-30T08:12:55;98858.39;;;20.79;100.00
56992;BME280;42885;49.754;18.636;2023-09-30T08:15:27;98858.97;;;20.83;100.00
56992;BME280;42885;49.754;18.636;2023-09-30T08:17:57;98867.23;;;21.83;100.00
56992;BME280;42885;49.754;18.636;2023-09-30T08:20:28;98866.06;;;21.02;100.00
56992;BME280;42885;49.754;18.636;2023-09-30T08:23:00;98864.92;;;20.90;100.00
56992;BME280;42885;49.754;18.636;2023-09-30T08:25:31;98868.77;;;20.82;100.00
56992;BME280;42885;49.754;18.636;2023-09-30T08:28:02;98870.06;;;20.68;100.00
56992;BME280;42885;49.754;18.636;2023-09-30T08:30:34;98869.52;;;20.55;100.00
56992;BME280;42885;49.754;18.636;2023-09-30T08:33:05;98879.33;;;20.34;100.00
56992;BME280;42885;49.754;18.636;2023-09-30T08:35:37;98879.33;;;20.34;100.00
56992;BME280;42885;49.754;18.636;2023-09-30T08:38:09;98877.84;;;20.16;100.00
56992;BME280;42885;49.754;18.636;2023-09-30T08:40:41;98876.83;;;19.78;100.00
56992;BME280;42885;49.754;18.636;2023-09-30T08:43:12;98880.97;;;19.61;100.00
56992;BME280;42885;49.754;18.636;2023-09-30T08:45:45;98877.61;;;19.84;100.00
56992;BME280;42885;49.754;18.636;2023-09-30T08:48:18;98877.82;;;19.36;100.00
56992;BME280;42885;49.754;18.636;2023-09-30T08:50:52;98878.95;;;19.02;100.00
56992;BME280;42885;49.754;18.636;2023-09-30T08:53:26;98882.21;;;19.16;100.00
56992;BME280;42885;49.754;18.636;2023-09-30T08:55:58;98879.16;;;19.05;100.00
56992;BME280;42885;49.754;18.636;2023-09-30T08:58:33;98878.20;;;19.06;100.00
56992;BME280;42885;49.754;18.636;2023-09-30T09:01:04;98886.63;;;19.52;100.00
56992;BME280;42885;49.754;18.636;2023-09-30T09:03:37;98881.45;;;19.35;100.00
56992;BME280;42885;49.754;18.636;2023-09-30T09:06:09;98880.17;;;19.54;100.00
56992;BME280;42885;49.754;18.636;2023-09-30T09:08:40;98882.38;;;19.24;100.00
56992;BME280;42885;49.754;18.636;2023-09-30T09:11:11;98888.37;;;19.32;100.00
56992;BME280;42885;49.754;18.636;2023-09-30T09:13:53;98886.81;;;19.14;100.00
56992;BME280;42885;49.754;18.636;2023-09-30T09:16:29;98888.72;;;19.33;100.00
56992;BME280;42885;49.754;18.636;2023-09-30T09:19:14;98885.94;;;19.34;100.00
56992;BME280;42885;49.754;18.636;2023-09-30T09:21:59;98893.80;;;19.30;100.00
56992;BME280;42885;49.754;18.636;2023-09-30T09:24:35;98894.15;;;19.31;100.00
56992;BME280;42885;49.754;18.636;2023-09-30T09:27:10;98895.92;;;19.36;100.00
56992;BME280;42885;49.754;18.636;2023-09-30T09:29:42;98896.80;;;19.16;100.00
56992;BME280;42885;49.754;18.636;2023-09-30T09:32:16;98899.41;;;19.21;100.00
56992;BME280;42885;49.754;18.636;2023-09-30T09:35:00;98902.33;;;19.03;100.00
56992;BME280;42885;49.754;18.636;2023-09-30T09:37:22;98895.80;;;19.22;100.00
56992;BME280;42885;49.754;18.636;2023-09-30T09:39:56;98896.17;;;19.33;100.00
56992;BME280;42885;49.754;18.636;2023-09-30T09:42:35;98895.70;;;19.34;100.00
56992;BME280;42885;49.754;18.636;2023-09-30T09:45:04;98893.09;;;19.53;100.00
56992;BME280;42885;49.754;18.636;2023-09-30T09:47:34;98897.25;;;19.36;100.00
56992;BME280;42885;49.754;18.636;2023-09-30T09:50:07;98893.81;;;20.06;100.00
56992;BME280;42885;49.754;18.636;2023-09-30T09:52:40;98896.92;;;19.30;100.00
56992;BME280;42885;49.754;18.636;2023-09-30T09:55:17;98893.44;;;19.45;100.00
56992;BME280;42885;49.754;18.636;2023-09-30T09:57:50;98895.16;;;19.56;100.00
56992;BME280;42885;49.754;18.636;2023-09-30T10:00:22;98894.88;;;19.59;100.00
56992;BME280;42885;49.754;18.636;2023-09-30T10:02:54;98896.48;;;19.56;100.00
56992;BME280;42885;49.754;18.636;2023-09-30T10:05:26;98895.41;;;19.52;100.00
56992;BME280;42885;49.754;18.636;2023-09-30T10:08:00;98897.27;;;19.46;100.00
56992;BME280;42885;49.754;18.636;2023-09-30T10:10:36;98904.52;;;19.60;100.00
56992;BME280;42885;49.754;18.636;2023-09-30T10:13:09;98900.08;;;19.54;100.00
56992;BME280;42885;49.754;18.636;2023-09-30T10:15:40;98901.23;;;19.62;100.00
56992;BME280;42885;49.754;18.636;2023-09-30T10:18:11;98904.70;;;19.52;100.00
56992;BME280;42885;49.754;18.636;2023-09-30T10:20:45;98902.87;;;19.69;100.00
56992;BME280;42885;49.754;18.636;2023-09-30T10:25:51;98904.20;;;20.53;100.00
56992;BME280;42885;49.754;18.636;2023-09-30T10:28:41;98907.16;;;20.01;100.00
56992;BME280;42885;49.754;18.636;2023-09-30T10:31:19;98905.77;;;19.56;100.00
56992;BME280;42885;49.754;18.636;2023-09-30T10:36:37;98909.92;;;19.74;100.00
56992;BME280;42885;49.754;18.636;2023-09-30T10:39:15;98911.18;;;19.95;100.00
56992;BME280;42885;49.754;18.636;2023-09-30T10:41:51;98905.84;;;19.85;100.00
56992;BME280;42885;49.754;18.636;2023-09-30T10:49:54;98903.16;;;20.11;100.00
56992;BME280;42885;49.754;18.636;2023-09-30T10:52:26;98905.19;;;20.13;100.00
56992;BME280;42885;49.754;18.636;2023-09-30T10:55:02;98904.14;;;20.10;100.00
56992;BME280;42885;49.754;18.636;2023-09-30T10:57:35;98909.02;;;20.04;100.00
56992;BME280;42885;49.754;18.636;2023-09-30T11:00:12;98905.42;;;20.25;100.00
56992;BME280;42885;49.754;18.636;2023-09-30T11:02:55;98904.66;;;20.39;100.00
56992;BME280;42885;49.754;18.636;2023-09-30T11:05:21;98909.77;;;20.36;100.00
56992;BME280;42885;49.754;18.636;2023-09-30T11:07:55;98909.89;;;20.34;100.00
56992;BME280;42885;49.754;18.636;2023-09-30T11:10:27;98913.45;;;20.29;100.00
56992;BME280;42885;49.754;18.636;2023-09-30T11:12:58;98915.36;;;20.23;100.00
56992;BME280;42885;49.754;18.636;2023-09-30T11:15:29;98918.27;;;19.85;100.00
56992;BME280;42885;49.754;18.636;2023-09-30T11:18:15;98922.38;;;19.73;100.00
56992;BME280;42885;49.754;18.636;2023-09-30T11:20:46;98919.83;;;19.46;100.00
56992;BME280;42885;49.754;18.636;2023-09-30T11:23:17;98926.44;;;19.52;100.00
56992;BME280;42885;49.754;18.636;2023-09-30T11:25:55;98931.59;;;19.53;100.00
56992;BME280;42885;49.754;18.636;2023-09-30T11:28:36;98934.17;;;19.49;100.00
56992;BME280;42885;49.754;18.636;2023-09-30T11:31:09;98934.16;;;19.65;100.00
56992;BME280;42885;49.754;18.636;2023-09-30T11:33:53;98933.78;;;19.38;100.00
56992;BME280;42885;49.754;18.636;2023-09-30T11:36:29;98936.70;;;19.20;100.00
56992;BME280;42885;49.754;18.636;2023-09-30T11:39:01;98945.58;;;19.09;100.00
56992;BME280;42885;49.754;18.636;2023-09-30T11:41:37;98945.70;;;19.07;100.00
56992;BME280;42885;49.754;18.636;2023-09-30T11:44:11;98949.72;;;19.02;100.00
56992;BME280;42885;49.754;18.636;2023-09-30T11:46:49;98949.84;;;18.94;100.00
56992;BME280;42885;49.754;18.636;2023-09-30T11:49:35;98949.04;;;19.15;100.00
56992;BME280;42885;49.754;18.636;2023-09-30T11:52:10;98957.52;;;19.09;100.00
56992;BME280;42885;49.754;18.636;2023-09-30T11:54:44;98955.61;;;18.99;100.00
56992;BME280;42885;49.754;18.636;2023-09-30T11:57:20;98957.61;;;19.29;100.00
56992;BME280;42885;49.754;18.636;2023-09-30T11:59:52;98959.17;;;18.89;100.00
56992;BME280;42885;49.754;18.636;2023-09-30T12:02:25;98961.73;;;18.84;100.00
56992;BME280;42885;49.754;18.636;2023-09-30T12:04:57;98957.56;;;18.97;100.00
56992;BME280;42885;49.754;18.636;2023-09-30T12:07:28;98961.61;;;19.07;100.00
56992;BME280;42885;49.754;18.636;2023-09-30T12:10:01;98960.56;;;18.98;100.00
56992;BME280;42885;49.754;18.636;2023-09-30T12:12:34;98959.00;;;19.02;100.00
56992;BME280;42885;49.754;18.636;2023-09-30T12:15:07;98962.13;;;18.95;100.00
56992;BME280;42885;49.754;18.636;2023-09-30T12:17:39;98967.09;;;18.94;100.00
56992;BME280;42885;49.754;18.636;2023-09-30T12:20:10;98961.08;;;18.92;100.00
56992;BME280;42885;49.754;18.636;2023-09-30T12:22:43;98970.07;;;19.07;100.00
56992;BME280;42885;49.754;18.636;2023-09-30T12:25:15;98969.92;;;19.08;100.00
56992;BME280;42885;49.754;18.636;2023-09-30T12:27:48;98972.37;;;19.06;100.00
56992;BME280;42885;49.754;18.636;2023-09-30T12:30:22;98973.70;;;19.21;100.00
56992;BME280;42885;49.754;18.636;2023-09-30T12:32:53;98974.08;;;19.22;100.00
56992;BME280;42885;49.754;18.636;2023-09-30T12:35:26;98979.83;;;19.43;100.00
56992;BME280;42885;49.754;18.636;2023-09-30T12:37:57;98980.52;;;19.30;100.00
56992;BME280;42885;49.754;18.636;2023-09-30T12:40:27;98977.34;;;19.36;100.00
56992;BME280;42885;49.754;18.636;2023-09-30T12:42:59;98980.17;;;19.44;100.00
56992;BME280;42885;49.754;18.636;2023-09-30T12:45:31;98980.63;;;19.49;100.00
56992;BME280;42885;49.754;18.636;2023-09-30T12:48:02;98985.48;;;19.60;100.00
56992;BME280;42885;49.754;18.636;2023-09-30T12:50:33;98985.97;;;19.28;100.00
56992;BME280;42885;49.754;18.636;2023-09-30T12:53:04;98993.48;;;19.38;100.00
56992;BME280;42885;49.754;18.636;2023-09-30T12:55:36;98995.70;;;19.49;100.00
56992;BME280;42885;49.754;18.636;2023-09-30T12:58:07;98994.34;;;19.39;100.00
56992;BME280;42885;49.754;18.636;2023-09-30T13:00:39;98992.81;;;19.15;100.00
56992;BME280;42885;49.754;18.636;2023-09-30T13:03:10;98997.02;;;19.33;100.00
56992;BME280;42885;49.754;18.636;2023-09-30T13:05:44;98997.91;;;19.28;100.00
56992;BME280;42885;49.754;18.636;2023-09-30T13:08:14;98998.73;;;19.29;100.00
56992;BME280;42885;49.754;18.636;2023-09-30T13:10:46;99006.23;;;19.08;100.00
56992;BME280;42885;49.754;18.636;2023-09-30T13:13:18;99009.87;;;18.95;100.00
56992;BME280;42885;49.754;18.636;2023-09-30T13:15:50;98998.83;;;18.90;100.00
56992;BME280;42885;49.754;18.636;2023-09-30T13:18:23;98993.67;;;19.10;100.00
56992;BME280;42885;49.754;18.636;2023-09-30T13:20:54;98999.84;;;19.05;100.00
56992;BME280;42885;49.754;18.636;2023-09-30T13:23:27;98988.09;;;19.13;100.00
56992;BME280;42885;49.754;18.636;2023-09-30T13:25:59;98995.11;;;19.14;100.00